sensor_id;sensor_type;location;lat;lon;timestamp;noise_LAeq;noise_LA_min;noise_LA_max;noise_LA01;noise_LA95
66399;Laerm;54877;51.504;3.894;2022-12-13T00:01:49;34.89;33.40;38.69;;
66399;Laerm;54877;51.504;3.894;2022-12-13T00:04:15;34.88;33.12;36.37;;
66399;Laerm;54877;51.504;3.894;2022-12-13T00:06:40;34.82;33.08;36.13;;
66399;Laerm;54877;51.504;3.894;2022-12-13T00:09:06;34.98;33.49;38.47;;
66399;Laerm;54877;51.504;3.894;2022-12-13T00:11:32;35.09;33.35;37.62;;
66399;Laerm;54877;51.504;3.894;2022-12-13T00:13:57;34.95;33.23;37.04;;
66399;Laerm;54877;51.504;3.894;2022-12-13T00:16:23;34.99;33.40;37.51;;
66399;Laerm;54877;51.504;3.894;2022-12-13T00:18:49;36.85;33.43;54.32;;
66399;Laerm;54877;51.504;3.894;2022-12-13T00:21:16;34.96;33.25;41.30;;
66399;Laerm;54877;51.504;3.894;2022-12-13T00:23:42;34.89;33.27;37.81;;
66399;Laerm;54877;51.504;3.894;2022-12-13T00:26:09;35.06;33.58;38.15;;
66399;Laerm;54877;51.504;3.894;2022-12-13T00:28:35;34.89;33.54;37.49;;
66399;Laerm;54877;51.504;3.894;2022-12-13T00:31:00;35.15;33.56;42.39;;
66399;Laerm;54877;51.504;3.894;2022-12-13T00:33:26;35.09;33.61;46.72;;
66399;Laerm;54877;51.504;3.894;2022-12-13T00:35:51;35.00;33.09;36.85;;
66399;Laerm;54877;51.504;3.894;2022-12-13T00:38:17;35.02;33.47;40.49;;
66399;Laerm;54877;51.504;3.894;2022-12-13T00:40:42;34.89;33.51;37.40;;
66399;Laerm;54877;51.504;3.894;2022-12-13T00:43:07;35.03;33.40;37.51;;
66399;Laerm;54877;51.504;3.894;2022-12-13T00:45:32;34.86;33.51;36.54;;
66399;Laerm;54877;51.504;3.894;2022-12-13T00:47:58;35.52;33.29;39.35;;
66399;Laerm;54877;51.504;3.894;2022-12-13T00:50:23;34.92;33.38;36.97;;
66399;Laerm;54877;51.504;3.894;2022-12-13T00:52:48;35.20;33.20;41.05;;
66399;Laerm;54877;51.504;3.894;2022-12-13T00:55:13;35.26;33.35;40.20;;
66399;Laerm;54877;51.504;3.894;2022-12-13T00:57:38;34.96;33.47;36.62;;
66399;Laerm;54877;51.504;3.894;2022-12-13T01:00:04;34.87;33.33;38.53;;
66399;Laerm;54877;51.504;3.894;2022-12-13T01:02:30;34.79;33.36;48.93;;
66399;Laerm;54877;51.504;3.894;2022-12-13T01:04:55;35.38;33.32;40.00;;
66399;Laerm;54877;51.504;3.894;2022-12-13T01:07:20;35.13;33.53;37.53;;
66399;Laerm;54877;51.504;3.894;2022-12-13T01:09:45;34.92;33.29;36.52;;
66399;Laerm;54877;51.504;3.894;2022-12-13T01:12:10;34.95;33.50;43.55;;
66399;Laerm;54877;51.504;3.894;2022-12-13T01:14:36;34.85;33.53;38.70;;
66399;Laerm;54877;51.504;3.894;2022-12-13T01:17:02;34.77;33.15;36.83;;
66399;Laerm;54877;51.504;3.894;2022-12-13T01:19:27;34.77;33.49;42.05;;
66399;Laerm;54877;51.504;3.894;2022-12-13T01:21:56;34.86;33.32;36.41;;
66399;Laerm;54877;51.504;3.894;2022-12-13T01:24:22;34.86;33.51;36.39;;
66399;Laerm;54877;51.504;3.894;2022-12-13T01:26:48;36.00;33.60;44.08;;
66399;Laerm;54877;51.504;3.894;2022-12-13T01:29:14;34.91;33.54;36.74;;
66399;Laerm;54877;51.504;3.894;2022-12-13T01:31:39;34.98;33.29;52.81;;
66399;Laerm;54877;51.504;3.894;2022-12-13T01:34:06;34.89;33.32;43.12;;
66399;Laerm;54877;51.504;3.894;2022-12-13T01:36:34;34.84;33.16;36.28;;
66399;Laerm;54877;51.504;3.894;2022-12-13T01:38:59;34.83;33.31;36.25;;
66399;Laerm;54877;51.504;3.894;2022-12-13T01:41:25;34.88;33.47;46.09;;
66399;Laerm;54877;51.504;3.894;2022-12-13T01:43:52;34.94;33.19;37.72;;
66399;Laerm;54877;51.504;3.894;2022-12-13T01:46:18;34.91;33.51;46.67;;
66399;Laerm;54877;51.504;3.894;2022-12-13T01:48:48;34.92;32.98;41.07;;
66399;Laerm;54877;51.504;3.894;2022-12-13T01:51:17;34.79;33.47;36.13;;
66399;Laerm;54877;51.504;3.894;2022-12-13T01:53:43;34.88;33.56;37.24;;
66399;Laerm;54877;51.504;3.894;2022-12-13T01:56:14;34.82;33.34;36.64;;
66399;Laerm;54877;51.504;3.894;2022-12-13T01:58:42;34.80;33.54;40.42;;
66399;Laerm;54877;51.504;3.894;2022-12-13T02:01:08;35.12;33.34;40.18;;
66399;Laerm;54877;51.504;3.894;2022-12-13T02:03:34;35.36;33.70;38.34;;
66399;Laerm;54877;51.504;3.894;2022-12-13T02:08:28;34.78;33.21;36.21;;
66399;Laerm;54877;51.504;3.894;2022-12-13T02:10:53;34.78;33.26;36.39;;
66399;Laerm;54877;51.504;3.894;2022-12-13T02:13:19;34.80;33.22;43.56;;
66399;Laerm;54877;51.504;3.894;2022-12-13T02:20:50;34.70;33.13;36.64;;
66399;Laerm;54877;51.504;3.894;2022-12-13T02:30:56;37.15;33.51;62.90;;
66399;Laerm;54877;51.504;3.894;2022-12-13T02:33:25;34.72;33.17;37.42;;
66399;Laerm;54877;51.504;3.894;2022-12-13T02:38:35;34.77;33.15;37.16;;
66399;Laerm;54877;51.504;3.894;2022-12-13T02:43:29;34.90;33.29;36.25;;
66399;Laerm;54877;51.504;3.894;2022-12-13T02:45:57;34.78;33.06;37.35;;
66399;Laerm;54877;51.504;3.894;2022-12-13T02:48:27;34.91;33.32;37.55;;
66399;Laerm;54877;51.504;3.894;2022-12-13T02:50:53;34.83;33.38;36.24;;
66399;Laerm;54877;51.504;3.894;2022-12-13T02:53:20;34.91;33.27;38.51;;
66399;Laerm;54877;51.504;3.894;2022-12-13T02:55:47;35.09;33.57;41.44;;
66399;Laerm;54877;51.504;3.894;2022-12-13T02:58:13;34.93;33.55;37.04;;
66399;Laerm;54877;51.504;3.894;2022-12-13T03:03:42;35.06;33.40;37.04;;
66399;Laerm;54877;51.504;3.894;2022-12-13T03:11:41;35.04;33.44;39.38;;
66399;Laerm;54877;51.504;3.894;2022-12-13T03:14:30;34.88;33.19;36.47;;
66399;Laerm;54877;51.504;3.894;2022-12-13T03:16:59;35.06;33.44;37.50;;
66399;Laerm;54877;51.504;3.894;2022-12-13T03:19:25;35.07;33.45;38.48;;
66399;Laerm;54877;51.504;3.894;2022-12-13T03:21:51;34.90;33.32;36.61;;
66399;Laerm;54877;51.504;3.894;2022-12-13T03:24:17;34.96;33.37;37.13;;
66399;Laerm;54877;51.504;3.894;2022-12-13T03:26:42;35.03;33.51;36.64;;
66399;Laerm;54877;51.504;3.894;2022-12-13T03:29:08;35.02;33.56;38.26;;
66399;Laerm;54877;51.504;3.894;2022-12-13T03:31:33;35.07;33.53;38.62;;
66399;Laerm;54877;51.504;3.894;2022-12-13T03:33:58;36.16;33.67;41.85;;
66399;Laerm;54877;51.504;3.894;2022-12-13T03:36:23;35.29;33.80;39.10;;
66399;Laerm;54877;51.504;3.894;2022-12-13T03:38:49;35.02;33.68;36.62;;
66399;Laerm;54877;51.504;3.894;2022-12-13T03:41:17;35.38;33.65;49.94;;
66399;Laerm;54877;51.504;3.894;2022-12-13T03:43:44;35.16;33.72;37.52;;
66399;Laerm;54877;51.504;3.894;2022-12-13T03:46:10;35.06;33.26;41.47;;
66399;Laerm;54877;51.504;3.894;2022-12-13T03:48:35;35.07;33.49;36.52;;
66399;Laerm;54877;51.504;3.894;2022-12-13T03:51:01;35.14;33.82;41.93;;
66399;Laerm;54877;51.504;3.894;2022-12-13T03:53:27;35.34;33.80;39.53;;
66399;Laerm;54877;51.504;3.894;2022-12-13T03:55:52;35.46;33.80;55.81;;
66399;Laerm;54877;51.504;3.894;2022-12-13T03:58:17;35.44;34.02;37.35;;
66399;Laerm;54877;51.504;3.894;2022-12-13T04:00:43;35.39;33.67;49.27;;
66399;Laerm;54877;51.504;3.894;2022-12-13T04:03:08;35.31;33.79;37.40;;
66399;Laerm;54877;51.504;3.894;2022-12-13T04:05:33;35.95;34.13;43.32;;
66399;Laerm;54877;51.504;3.894;2022-12-13T04:07:58;35.76;33.77;38.39;;
66399;Laerm;54877;51.504;3.894;2022-12-13T04:10:24;36.93;34.00;43.13;;
66399;Laerm;54877;51.504;3.894;2022-12-13T04:12:49;36.75;34.21;43.77;;
66399;Laerm;54877;51.504;3.894;2022-12-13T04:15:33;35.56;34.05;37.85;;
66399;Laerm;54877;51.504;3.894;2022-12-13T04:17:58;35.77;34.00;38.01;;
66399;Laerm;54877;51.504;3.894;2022-12-13T04:20:23;35.86;33.50;40.85;;
66399;Laerm;54877;51.504;3.894;2022-12-13T04:22:49;35.44;33.92;37.34;;
66399;Laerm;54877;51.504;3.894;2022-12-13T04:25:14;35.52;33.99;45.41;;
66399;Laerm;54877;51.504;3.894;2022-12-13T04:27:39;35.44;33.58;45.10;;
66399;Laerm;54877;51.504;3.894;2022-12-13T04:30:04;36.90;34.03;48.57;;
66399;Laerm;54877;51.504;3.894;2022-12-13T04:32:30;36.27;34.20;41.63;;
66399;Laerm;54877;51.504;3.894;2022-12-13T04:34:55;36.16;34.41;38.29;;
66399;Laerm;54877;51.504;3.894;2022-12-13T04:37:20;35.93;34.38;38.19;;
66399;Laerm;54877;51.504;3.894;2022-12-13T04:39:46;35.87;34.20;38.73;;
66399;Laerm;54877;51.504;3.894;2022-12-13T04:42:11;35.66;34.00;48.08;;
66399;Laerm;54877;51.504;3.894;2022-12-13T04:44:36;35.91;34.21;41.43;;
66399;Laerm;54877;51.504;3.894;2022-12-13T04:47:01;36.00;34.23;38.51;;
66399;Laerm;54877;51.504;3.894;2022-12-13T04:49:30;40.24;34.55;51.91;;
66399;Laerm;54877;51.504;3.894;2022-12-13T04:51:55;36.27;34.28;41.58;;
66399;Laerm;54877;51.504;3.894;2022-12-13T04:54:20;36.89;34.57;40.72;;
66399;Laerm;54877;51.504;3.894;2022-12-13T04:56:45;36.27;34.36;38.83;;
66399;Laerm;54877;51.504;3.894;2022-12-13T04:59:11;36.14;34.43;39.33;;
66399;Laerm;54877;51.504;3.894;2022-12-13T05:01:36;37.40;34.56;49.84;;
66399;Laerm;54877;51.504;3.894;2022-12-13T05:04:01;36.35;34.31;43.99;;
66399;Laerm;54877;51.504;3.894;2022-12-13T05:06:27;36.50;34.84;38.40;;
66399;Laerm;54877;51.504;3.894;2022-12-13T05:08:52;38.66;34.81;52.27;;
66399;Laerm;54877;51.504;3.894;2022-12-13T05:11:17;36.96;34.89;43.71;;
66399;Laerm;54877;51.504;3.894;2022-12-13T05:13:42;37.36;35.06;43.24;;
66399;Laerm;54877;51.504;3.894;2022-12-13T05:16:07;37.41;35.11;41.31;;
66399;Laerm;54877;51.504;3.894;2022-12-13T05:18:33;37.90;35.39;52.00;;
66399;Laerm;54877;51.504;3.894;2022-12-13T05:21:06;37.63;35.44;42.36;;
66399;Laerm;54877;51.504;3.894;2022-12-13T05:23:32;41.37;36.27;56.56;;
66399;Laerm;54877;51.504;3.894;2022-12-13T05:25:57;38.67;35.82;44.08;;
66399;Laerm;54877;51.504;3.894;2022-12-13T05:28:23;38.26;35.91;42.11;;
66399;Laerm;54877;51.504;3.894;2022-12-13T05:30:50;41.51;35.14;59.97;;
66399;Laerm;54877;51.504;3.894;2022-12-13T05:33:15;41.33;36.06;51.58;;
66399;Laerm;54877;51.504;3.894;2022-12-13T05:35:41;56.37;35.88;75.71;;
66399;Laerm;54877;51.504;3.894;2022-12-13T05:38:06;57.82;35.80;77.54;;
66399;Laerm;54877;51.504;3.894;2022-12-13T05:40:31;37.98;35.76;42.47;;
66399;Laerm;54877;51.504;3.894;2022-12-13T05:42:57;42.05;36.46;59.93;;
66399;Laerm;54877;51.504;3.894;2022-12-13T05:45:22;53.33;36.07;71.89;;
66399;Laerm;54877;51.504;3.894;2022-12-13T05:47:48;48.96;37.61;68.20;;
66399;Laerm;54877;51.504;3.894;2022-12-13T05:50:14;47.54;44.12;55.88;;
66399;Laerm;54877;51.504;3.894;2022-12-13T05:52:39;46.27;42.58;66.97;;
66399;Laerm;54877;51.504;3.894;2022-12-13T05:55:04;47.11;36.31;60.91;;
66399;Laerm;54877;51.504;3.894;2022-12-13T05:57:30;41.31;35.41;57.14;;
66399;Laerm;54877;51.504;3.894;2022-12-13T05:59:55;39.76;35.88;58.13;;
66399;Laerm;54877;51.504;3.894;2022-12-13T06:02:21;38.28;35.58;52.01;;
66399;Laerm;54877;51.504;3.894;2022-12-13T06:04:47;38.53;35.80;45.15;;
66399;Laerm;54877;51.504;3.894;2022-12-13T06:07:12;38.71;36.12;46.38;;
66399;Laerm;54877;51.504;3.894;2022-12-13T06:09:38;42.15;36.86;54.62;;
66399;Laerm;54877;51.504;3.894;2022-12-13T06:12:03;57.68;36.64;75.18;;
66399;Laerm;54877;51.504;3.894;2022-12-13T06:14:28;39.27;36.62;45.35;;
66399;Laerm;54877;51.504;3.894;2022-12-13T06:16:54;56.12;37.29;77.23;;
66399;Laerm;54877;51.504;3.894;2022-12-13T06:19:19;50.68;44.27;77.92;;
66399;Laerm;54877;51.504;3.894;2022-12-13T06:21:45;48.61;37.07;67.07;;
66399;Laerm;54877;51.504;3.894;2022-12-13T06:24:10;44.47;38.36;56.12;;
66399;Laerm;54877;51.504;3.894;2022-12-13T06:26:35;45.59;40.31;64.65;;
66399;Laerm;54877;51.504;3.894;2022-12-13T06:29:01;43.31;39.84;54.29;;
66399;Laerm;54877;51.504;3.894;2022-12-13T06:31:26;43.74;39.14;57.97;;
66399;Laerm;54877;51.504;3.894;2022-12-13T06:33:51;50.81;37.32;72.74;;
66399;Laerm;54877;51.504;3.894;2022-12-13T06:36:16;57.11;41.50;77.78;;
66399;Laerm;54877;51.504;3.894;2022-12-13T06:38:41;58.03;39.50;72.94;;
66399;Laerm;54877;51.504;3.894;2022-12-13T06:41:07;56.60;38.02;75.11;;
66399;Laerm;54877;51.504;3.894;2022-12-13T06:43:33;59.13;38.08;79.33;;
66399;Laerm;54877;51.504;3.894;2022-12-13T06:45:58;53.28;37.98;70.21;;
66399;Laerm;54877;51.504;3.894;2022-12-13T06:48:23;53.77;37.84;70.58;;
66399;Laerm;54877;51.504;3.894;2022-12-13T06:50:48;41.72;38.04;57.96;;
66399;Laerm;54877;51.504;3.894;2022-12-13T06:53:14;48.78;37.96;62.71;;
66399;Laerm;54877;51.504;3.894;2022-12-13T06:55:39;55.32;38.70;71.16;;
66399;Laerm;54877;51.504;3.894;2022-12-13T06:58:04;63.26;39.23;81.70;;
66399;Laerm;54877;51.504;3.894;2022-12-13T07:00:29;49.03;38.82;70.22;;
66399;Laerm;54877;51.504;3.894;2022-12-13T07:02:55;51.95;38.18;65.29;;
66399;Laerm;54877;51.504;3.894;2022-12-13T07:05:20;44.26;38.13;61.88;;
66399;Laerm;54877;51.504;3.894;2022-12-13T07:07:46;42.76;38.26;53.96;;
66399;Laerm;54877;51.504;3.894;2022-12-13T07:10:11;56.80;38.96;73.66;;
66399;Laerm;54877;51.504;3.894;2022-12-13T07:12:36;43.40;38.62;60.19;;
66399;Laerm;54877;51.504;3.894;2022-12-13T07:15:01;51.68;39.10;70.65;;
66399;Laerm;54877;51.504;3.894;2022-12-13T07:17:27;52.11;39.47;65.70;;
66399;Laerm;54877;51.504;3.894;2022-12-13T07:19:52;44.29;39.64;61.09;;
66399;Laerm;54877;51.504;3.894;2022-12-13T07:22:17;46.72;38.88;66.17;;
66399;Laerm;54877;51.504;3.894;2022-12-13T07:24:42;46.61;39.66;67.40;;
66399;Laerm;54877;51.504;3.894;2022-12-13T07:27:08;58.27;39.12;74.06;;
66399;Laerm;54877;51.504;3.894;2022-12-13T07:29:33;57.87;39.37;76.86;;
66399;Laerm;54877;51.504;3.894;2022-12-13T07:31:58;56.14;39.75;72.90;;
66399;Laerm;54877;51.504;3.894;2022-12-13T07:34:23;58.18;39.59;74.41;;
66399;Laerm;54877;51.504;3.894;2022-12-13T07:36:49;53.37;41.12;70.60;;
66399;Laerm;54877;51.504;3.894;2022-12-13T07:39:14;56.28;39.63;73.50;;
66399;Laerm;54877;51.504;3.894;2022-12-13T07:41:39;45.21;39.10;72.00;;
66399;Laerm;54877;51.504;3.894;2022-12-13T07:44:05;55.97;39.39;74.29;;
66399;Laerm;54877;51.504;3.894;2022-12-13T07:46:30;59.04;39.82;78.07;;
66399;Laerm;54877;51.504;3.894;2022-12-13T07:48:55;42.76;39.28;58.00;;
66399;Laerm;54877;51.504;3.894;2022-12-13T07:51:20;53.57;39.33;71.09;;
66399;Laerm;54877;51.504;3.894;2022-12-13T07:53:45;46.64;38.64;65.98;;
66399;Laerm;54877;51.504;3.894;2022-12-13T07:56:11;54.40;37.94;69.24;;
66399;Laerm;54877;51.504;3.894;2022-12-13T07:58:36;58.20;37.95;74.63;;
66399;Laerm;54877;51.504;3.894;2022-12-13T08:01:05;46.01;38.75;64.91;;
66399;Laerm;54877;51.504;3.894;2022-12-13T08:03:31;50.09;38.27;68.10;;
66399;Laerm;54877;51.504;3.894;2022-12-13T08:06:00;52.38;37.58;69.89;;
66399;Laerm;54877;51.504;3.894;2022-12-13T08:08:26;42.63;37.90;58.44;;
66399;Laerm;54877;51.504;3.894;2022-12-13T08:10:51;43.61;38.23;63.35;;
66399;Laerm;54877;51.504;3.894;2022-12-13T08:13:16;55.55;39.03;72.24;;
66399;Laerm;54877;51.504;3.894;2022-12-13T08:15:41;44.89;39.15;67.27;;
66399;Laerm;54877;51.504;3.894;2022-12-13T08:18:06;51.50;38.91;75.75;;
66399;Laerm;54877;51.504;3.894;2022-12-13T08:20:32;45.50;38.05;66.46;;
66399;Laerm;54877;51.504;3.894;2022-12-13T08:22:57;45.41;38.48;62.68;;
66399;Laerm;54877;51.504;3.894;2022-12-13T08:25:23;48.68;38.17;67.28;;
66399;Laerm;54877;51.504;3.894;2022-12-13T08:27:49;45.33;37.94;66.39;;
66399;Laerm;54877;51.504;3.894;2022-12-13T08:30:14;56.48;38.97;72.12;;
66399;Laerm;54877;51.504;3.894;2022-12-13T08:32:39;55.20;51.69;65.84;;
66399;Laerm;54877;51.504;3.894;2022-12-13T08:35:05;56.79;39.09;72.71;;
66399;Laerm;54877;51.504;3.894;2022-12-13T08:37:30;42.96;37.73;57.84;;
66399;Laerm;54877;51.504;3.894;2022-12-13T08:39:55;59.50;39.95;78.39;;
66399;Laerm;54877;51.504;3.894;2022-12-13T08:42:20;64.24;40.04;81.23;;
66399;Laerm;54877;51.504;3.894;2022-12-13T08:44:48;74.37;39.48;93.31;;
66399;Laerm;54877;51.504;3.894;2022-12-13T08:47:14;54.08;37.45;73.97;;
66399;Laerm;54877;51.504;3.894;2022-12-13T08:49:40;53.86;37.85;71.00;;
66399;Laerm;54877;51.504;3.894;2022-12-13T08:52:05;40.12;37.00;51.74;;
66399;Laerm;54877;51.504;3.894;2022-12-13T08:54:33;51.81;36.85;68.75;;
66399;Laerm;54877;51.504;3.894;2022-12-13T08:56:59;63.53;37.22;86.91;;
66399;Laerm;54877;51.504;3.894;2022-12-13T08:59:24;41.90;37.05;63.25;;
66399;Laerm;54877;51.504;3.894;2022-12-13T09:01:50;43.42;37.74;66.05;;
66399;Laerm;54877;51.504;3.894;2022-12-13T09:04:15;41.71;37.56;62.20;;
66399;Laerm;54877;51.504;3.894;2022-12-13T09:06:41;56.93;37.93;75.08;;
66399;Laerm;54877;51.504;3.894;2022-12-13T09:09:06;55.51;38.11;71.69;;
66399;Laerm;54877;51.504;3.894;2022-12-13T09:11:31;47.55;37.83;78.90;;
66399;Laerm;54877;51.504;3.894;2022-12-13T09:13:57;46.08;37.40;66.46;;
66399;Laerm;54877;51.504;3.894;2022-12-13T09:16:22;44.56;37.20;67.02;;
66399;Laerm;54877;51.504;3.894;2022-12-13T09:18:51;41.53;37.43;64.28;;
66399;Laerm;54877;51.504;3.894;2022-12-13T09:21:16;52.51;37.85;69.06;;
66399;Laerm;54877;51.504;3.894;2022-12-13T09:23:42;57.78;37.92;75.74;;
66399;Laerm;54877;51.504;3.894;2022-12-13T09:26:08;40.02;37.20;54.56;;
66399;Laerm;54877;51.504;3.894;2022-12-13T09:28:34;51.22;36.91;68.11;;
66399;Laerm;54877;51.504;3.894;2022-12-13T09:31:04;50.25;37.76;75.17;;
66399;Laerm;54877;51.504;3.894;2022-12-13T09:33:30;51.11;36.83;73.12;;
66399;Laerm;54877;51.504;3.894;2022-12-13T09:35:55;54.94;36.85;74.06;;
66399;Laerm;54877;51.504;3.894;2022-12-13T09:38:20;58.33;38.34;77.97;;
66399;Laerm;54877;51.504;3.894;2022-12-13T09:40:46;44.00;36.67;58.02;;
66399;Laerm;54877;51.504;3.894;2022-12-13T09:43:15;40.63;36.50;61.63;;
66399;Laerm;54877;51.504;3.894;2022-12-13T09:45:45;42.56;36.52;63.43;;
66399;Laerm;54877;51.504;3.894;2022-12-13T09:48:18;42.47;36.69;61.70;;
66399;Laerm;54877;51.504;3.894;2022-12-13T09:50:44;49.41;36.37;70.37;;
66399;Laerm;54877;51.504;3.894;2022-12-13T09:53:10;45.10;36.32;62.97;;
66399;Laerm;54877;51.504;3.894;2022-12-13T09:55:38;57.24;36.54;76.08;;
66399;Laerm;54877;51.504;3.894;2022-12-13T09:58:07;62.41;37.96;81.80;;
66399;Laerm;54877;51.504;3.894;2022-12-13T10:00:35;47.24;35.65;71.20;;
66399;Laerm;54877;51.504;3.894;2022-12-13T10:03:00;41.02;35.13;57.76;;
66399;Laerm;54877;51.504;3.894;2022-12-13T10:05:33;50.54;36.33;64.65;;
66399;Laerm;54877;51.504;3.894;2022-12-13T10:10:29;56.76;36.02;76.61;;
66399;Laerm;54877;51.504;3.894;2022-12-13T10:12:57;41.20;35.51;57.73;;
66399;Laerm;54877;51.504;3.894;2022-12-13T10:15:27;43.70;36.44;64.06;;
66399;Laerm;54877;51.504;3.894;2022-12-13T10:17:54;56.47;34.51;74.00;;
66399;Laerm;54877;51.504;3.894;2022-12-13T10:20:20;40.04;35.35;55.80;;
66399;Laerm;54877;51.504;3.894;2022-12-13T10:22:46;43.56;35.30;58.31;;
66399;Laerm;54877;51.504;3.894;2022-12-13T10:25:11;40.36;34.26;58.65;;
66399;Laerm;54877;51.504;3.894;2022-12-13T10:27:38;44.93;34.97;57.25;;
66399;Laerm;54877;51.504;3.894;2022-12-13T10:32:32;38.19;34.69;44.84;;
66399;Laerm;54877;51.504;3.894;2022-12-13T10:36:00;38.76;34.38;52.27;;
66399;Laerm;54877;51.504;3.894;2022-12-13T10:37:55;42.36;35.46;60.95;;
66399;Laerm;54877;51.504;3.894;2022-12-13T10:43:04;42.98;35.77;67.84;;
66399;Laerm;54877;51.504;3.894;2022-12-13T10:45:30;41.92;35.48;56.75;;
66399;Laerm;54877;51.504;3.894;2022-12-13T10:47:55;57.29;36.77;75.12;;
66399;Laerm;54877;51.504;3.894;2022-12-13T10:50:22;56.67;35.67;74.91;;
66399;Laerm;54877;51.504;3.894;2022-12-13T10:52:48;59.41;35.58;77.52;;
66399;Laerm;54877;51.504;3.894;2022-12-13T10:57:57;56.17;36.23;73.03;;
66399;Laerm;54877;51.504;3.894;2022-12-13T11:02:54;49.10;37.31;67.69;;
66399;Laerm;54877;51.504;3.894;2022-12-13T11:05:24;49.72;36.49;70.22;;
66399;Laerm;54877;51.504;3.894;2022-12-13T11:07:50;40.24;35.95;55.63;;
66399;Laerm;54877;51.504;3.894;2022-12-13T11:12:40;54.29;36.07;73.63;;
66399;Laerm;54877;51.504;3.894;2022-12-13T11:15:06;44.79;36.43;61.65;;
66399;Laerm;54877;51.504;3.894;2022-12-13T11:17:32;39.94;36.09;55.49;;
66399;Laerm;54877;51.504;3.894;2022-12-13T11:20:00;46.65;35.57;60.90;;
66399;Laerm;54877;51.504;3.894;2022-12-13T11:22:27;46.05;36.55;65.24;;
66399;Laerm;54877;51.504;3.894;2022-12-13T11:25:04;53.33;36.08;70.73;;
66399;Laerm;54877;51.504;3.894;2022-12-13T11:30:20;42.02;36.24;60.28;;
66399;Laerm;54877;51.504;3.894;2022-12-13T11:32:51;51.04;39.02;65.48;;
66399;Laerm;54877;51.504;3.894;2022-12-13T11:35:24;44.91;36.44;63.23;;
66399;Laerm;54877;51.504;3.894;2022-12-13T11:37:53;44.87;36.75;64.81;;
66399;Laerm;54877;51.504;3.894;2022-12-13T11:40:24;45.62;37.28;64.93;;
66399;Laerm;54877;51.504;3.894;2022-12-13T11:42:56;54.11;37.70;72.67;;
66399;Laerm;54877;51.504;3.894;2022-12-13T11:45:38;43.04;36.23;55.33;;
66399;Laerm;54877;51.504;3.894;2022-12-13T11:50:34;59.52;36.43;76.95;;
66399;Laerm;54877;51.504;3.894;2022-12-13T11:55:58;56.02;38.39;76.32;;
66399;Laerm;54877;51.504;3.894;2022-12-13T12:04:10;55.20;37.29;71.86;;
66399;Laerm;54877;51.504;3.894;2022-12-13T12:09:21;43.03;36.75;60.96;;
66399;Laerm;54877;51.504;3.894;2022-12-13T12:11:52;42.22;37.98;61.46;;
66399;Laerm;54877;51.504;3.894;2022-12-13T12:14:22;45.99;37.36;64.01;;
66399;Laerm;54877;51.504;3.894;2022-12-13T12:16:51;42.55;36.79;57.25;;
66399;Laerm;54877;51.504;3.894;2022-12-13T12:19:32;56.88;37.08;73.62;;
66399;Laerm;54877;51.504;3.894;2022-12-13T12:35:43;43.08;36.28;63.44;;
66399;Laerm;54877;51.504;3.894;2022-12-13T12:37:50;44.76;36.99;69.96;;
66399;Laerm;54877;51.504;3.894;2022-12-13T12:40:23;44.57;37.49;62.88;;
66399;Laerm;54877;51.504;3.894;2022-12-13T12:48:09;48.58;36.48;75.74;;
66399;Laerm;54877;51.504;3.894;2022-12-13T13:05:40;42.45;36.05;65.92;;
66399;Laerm;54877;51.504;3.894;2022-12-13T13:08:20;55.97;36.80;74.96;;
66399;Laerm;54877;51.504;3.894;2022-12-13T13:10:47;53.44;37.00;73.37;;
66399;Laerm;54877;51.504;3.894;2022-12-13T13:15:57;43.73;36.92;67.18;;
66399;Laerm;54877;51.504;3.894;2022-12-13T13:23:47;41.11;36.44;58.84;;
66399;Laerm;54877;51.504;3.894;2022-12-13T13:26:25;40.61;36.10;58.15;;
66399;Laerm;54877;51.504;3.894;2022-12-13T13:28:51;53.14;35.69;71.66;;
66399;Laerm;54877;51.504;3.894;2022-12-13T13:31:16;58.87;36.36;74.67;;
66399;Laerm;54877;51.504;3.894;2022-12-13T13:33:45;64.38;36.67;89.49;;
66399;Laerm;54877;51.504;3.894;2022-12-13T13:38:55;48.28;36.08;64.04;;
66399;Laerm;54877;51.504;3.894;2022-12-13T13:41:39;46.48;36.57;71.27;;
66399;Laerm;54877;51.504;3.894;2022-12-13T13:49:33;40.93;35.93;60.41;;
66399;Laerm;54877;51.504;3.894;2022-12-13T13:52:17;40.87;36.00;57.90;;
66399;Laerm;54877;51.504;3.894;2022-12-13T14:08:08;51.40;36.20;71.11;;
66399;Laerm;54877;51.504;3.894;2022-12-13T14:29:21;57.46;36.42;77.06;;
66399;Laerm;54877;51.504;3.894;2022-12-13T14:31:48;46.71;36.44;66.18;;
66399;Laerm;54877;51.504;3.894;2022-12-13T14:34:31;46.32;37.09;64.01;;
66399;Laerm;54877;51.504;3.894;2022-12-13T14:37:20;43.12;36.31;56.17;;
66399;Laerm;54877;51.504;3.894;2022-12-13T14:39:44;52.18;36.44;67.65;;
66399;Laerm;54877;51.504;3.894;2022-12-13T14:42:20;56.44;36.71;75.89;;
66399;Laerm;54877;51.504;3.894;2022-12-13T14:44:46;58.97;37.35;78.19;;
66399;Laerm;54877;51.504;3.894;2022-12-13T14:47:11;41.70;36.52;56.19;;
66399;Laerm;54877;51.504;3.894;2022-12-13T14:49:39;51.25;37.46;72.12;;
66399;Laerm;54877;51.504;3.894;2022-12-13T14:52:15;54.45;36.77;78.70;;
66399;Laerm;54877;51.504;3.894;2022-12-13T14:57:20;45.78;36.74;68.81;;
66399;Laerm;54877;51.504;3.894;2022-12-13T14:59:47;46.96;36.39;62.81;;
66399;Laerm;54877;51.504;3.894;2022-12-13T15:02:13;46.95;36.74;64.37;;
66399;Laerm;54877;51.504;3.894;2022-12-13T15:04:39;56.30;36.49;74.78;;
66399;Laerm;54877;51.504;3.894;2022-12-13T15:09:39;59.52;37.55;77.00;;
66399;Laerm;54877;51.504;3.894;2022-12-13T15:12:08;53.00;36.97;69.97;;
66399;Laerm;54877;51.504;3.894;2022-12-13T15:14:34;57.41;36.58;76.96;;
66399;Laerm;54877;51.504;3.894;2022-12-13T15:17:01;44.15;36.63;66.34;;
66399;Laerm;54877;51.504;3.894;2022-12-13T15:19:26;56.57;37.51;74.65;;
66399;Laerm;54877;51.504;3.894;2022-12-13T15:21:59;56.82;37.61;75.01;;
66399;Laerm;54877;51.504;3.894;2022-12-13T15:24:29;46.31;36.98;67.61;;
66399;Laerm;54877;51.504;3.894;2022-12-13T15:26:55;59.37;37.61;77.01;;
66399;Laerm;54877;51.504;3.894;2022-12-13T15:29:21;53.02;37.38;71.10;;
66399;Laerm;54877;51.504;3.894;2022-12-13T15:31:47;48.73;36.44;77.42;;
66399;Laerm;54877;51.504;3.894;2022-12-13T15:36:44;51.77;36.66;70.25;;
66399;Laerm;54877;51.504;3.894;2022-12-13T15:39:09;54.57;36.37;71.41;;
66399;Laerm;54877;51.504;3.894;2022-12-13T15:41:40;57.98;37.24;76.14;;
66399;Laerm;54877;51.504;3.894;2022-12-13T15:44:07;52.92;37.22;71.21;;
66399;Laerm;54877;51.504;3.894;2022-12-13T15:46:42;41.68;36.11;61.03;;
66399;Laerm;54877;51.504;3.894;2022-12-13T15:52:03;50.09;37.41;67.23;;
66399;Laerm;54877;51.504;3.894;2022-12-13T15:54:29;55.74;36.23;74.22;;
66399;Laerm;54877;51.504;3.894;2022-12-13T15:56:57;54.77;35.62;74.09;;
66399;Laerm;54877;51.504;3.894;2022-12-13T15:59:30;53.37;36.55;72.21;;
66399;Laerm;54877;51.504;3.894;2022-12-13T16:01:55;42.99;36.92;59.28;;
66399;Laerm;54877;51.504;3.894;2022-12-13T16:04:25;51.70;36.38;67.49;;
66399;Laerm;54877;51.504;3.894;2022-12-13T16:06:52;54.54;37.47;69.49;;
66399;Laerm;54877;51.504;3.894;2022-12-13T16:09:18;40.44;36.40;55.07;;
66399;Laerm;54877;51.504;3.894;2022-12-13T16:11:57;57.19;42.51;71.99;;
66399;Laerm;54877;51.504;3.894;2022-12-13T16:16:59;64.68;37.07;87.56;;
66399;Laerm;54877;51.504;3.894;2022-12-13T16:19:26;45.68;37.16;63.84;;